sensor_id;sensor_type;location;lat;lon;timestamp;temperature;humidity
64226;DHT22;50545;56.064;26.178;2024-01-15T00:01:31;-0.60;99.90
64226;DHT22;50545;56.064;26.178;2024-01-15T00:03:59;-0.60;99.90
64226;DHT22;50545;56.064;26.178;2024-01-15T00:06:27;-0.60;99.90
64226;DHT22;50545;56.064;26.178;2024-01-15T00:08:55;-0.60;99.90
64226;DHT22;50545;56.064;26.178;2024-01-15T00:11:25;-0.50;99.90
64226;DHT22;50545;56.064;26.178;2024-01-15T00:13:53;-0.60;99.90
64226;DHT22;50545;56.064;26.178;2024-01-15T00:16:20;-0.50;99.90
64226;DHT22;50545;56.064;26.178;2024-01-15T00:18:48;-0.50;99.90
64226;DHT22;50545;56.064;26.178;2024-01-15T00:21:15;-0.50;99.90
64226;DHT22;50545;56.064;26.178;2024-01-15T00:23:43;-0.50;99.90
64226;DHT22;50545;56.064;26.178;2024-01-15T00:26:14;-0.50;99.90
64226;DHT22;50545;56.064;26.178;2024-01-15T00:28:41;-0.50;99.90
64226;DHT22;50545;56.064;26.178;2024-01-15T00:31:08;-0.50;99.90
64226;DHT22;50545;56.064;26.178;2024-01-15T00:33:37;-0.50;99.90
64226;DHT22;50545;56.064;26.178;2024-01-15T00:36:04;-0.50;99.90
64226;DHT22;50545;56.064;26.178;2024-01-15T00:38:32;-0.50;99.90
64226;DHT22;50545;56.064;26.178;2024-01-15T00:41:00;-0.50;99.90
64226;DHT22;50545;56.064;26.178;2024-01-15T00:43:27;-0.50;99.90
64226;DHT22;50545;56.064;26.178;2024-01-15T00:45:55;-0.40;99.90
64226;DHT22;50545;56.064;26.178;2024-01-15T00:48:22;-0.40;99.90
64226;DHT22;50545;56.064;26.178;2024-01-15T00:50:50;-0.40;99.90
64226;DHT22;50545;56.064;26.178;2024-01-15T00:53:18;-0.50;99.90
64226;DHT22;50545;56.064;26.178;2024-01-15T00:55:47;-0.40;99.90
64226;DHT22;50545;56.064;26.178;2024-01-15T00:58:15;-0.40;99.90
64226;DHT22;50545;56.064;26.178;2024-01-15T01:00:43;-0.40;99.90
64226;DHT22;50545;56.064;26.178;2024-01-15T01:03:10;-0.40;99.90
64226;DHT22;50545;56.064;26.178;2024-01-15T01:05:38;-0.40;99.90
64226;DHT22;50545;56.064;26.178;2024-01-15T01:08:05;-0.40;99.90
64226;DHT22;50545;56.064;26.178;2024-01-15T01:10:33;-0.40;99.90
64226;DHT22;50545;56.064;26.178;2024-01-15T01:13:00;-0.40;99.90
64226;DHT22;50545;56.064;26.178;2024-01-15T01:15:28;-0.40;99.90
64226;DHT22;50545;56.064;26.178;2024-01-15T01:17:55;-0.40;99.90
64226;DHT22;50545;56.064;26.178;2024-01-15T01:20:23;-0.40;99.90
64226;DHT22;50545;56.064;26.178;2024-01-15T01:22:51;-0.40;99.90
64226;DHT22;50545;56.064;26.178;2024-01-15T01:25:18;-0.50;99.90
64226;DHT22;50545;56.064;26.178;2024-01-15T01:27:46;-0.40;99.90
64226;DHT22;50545;56.064;26.178;2024-01-15T01:30:14;-0.40;99.90
64226;DHT22;50545;56.064;26.178;2024-01-15T01:32:41;-0.50;99.90
64226;DHT22;50545;56.064;26.178;2024-01-15T01:35:09;-0.50;99.90
64226;DHT22;50545;56.064;26.178;2024-01-15T01:37:37;-0.50;99.90
64226;DHT22;50545;56.064;26.178;2024-01-15T01:40:05;-0.50;99.90
64226;DHT22;50545;56.064;26.178;2024-01-15T01:42:32;-0.50;99.90
64226;DHT22;50545;56.064;26.178;2024-01-15T01:45:00;-0.50;99.90
64226;DHT22;50545;56.064;26.178;2024-01-15T01:47:27;-0.50;99.90
64226;DHT22;50545;56.064;26.178;2024-01-15T01:49:56;-0.50;99.90
64226;DHT22;50545;56.064;26.178;2024-01-15T01:52:23;-0.40;99.90
64226;DHT22;50545;56.064;26.178;2024-01-15T01:54:52;-0.40;99.90
64226;DHT22;50545;56.064;26.178;2024-01-15T01:57:19;-0.50;99.90
64226;DHT22;50545;56.064;26.178;2024-01-15T01:59:47;-0.40;99.90
64226;DHT22;50545;56.064;26.178;2024-01-15T02:02:15;-0.40;99.90
64226;DHT22;50545;56.064;26.178;2024-01-15T02:04:43;-0.40;99.90
64226;DHT22;50545;56.064;26.178;2024-01-15T02:07:11;-0.40;99.90
64226;DHT22;50545;56.064;26.178;2024-01-15T02:09:41;-0.40;99.90
64226;DHT22;50545;56.064;26.178;2024-01-15T02:12:08;-0.40;99.90
64226;DHT22;50545;56.064;26.178;2024-01-15T02:14:36;-0.50;99.90
64226;DHT22;50545;56.064;26.178;2024-01-15T02:17:04;-0.50;99.90
64226;DHT22;50545;56.064;26.178;2024-01-15T02:19:31;-0.50;99.90
64226;DHT22;50545;56.064;26.178;2024-01-15T02:21:59;-0.50;99.90
64226;DHT22;50545;56.064;26.178;2024-01-15T02:24:26;-0.50;99.90
64226;DHT22;50545;56.064;26.178;2024-01-15T02:26:54;-0.40;99.90
64226;DHT22;50545;56.064;26.178;2024-01-15T02:29:21;-0.40;99.90
64226;DHT22;50545;56.064;26.178;2024-01-15T02:31:49;-0.40;99.90
64226;DHT22;50545;56.064;26.178;2024-01-15T02:34:17;-0.40;99.90
64226;DHT22;50545;56.064;26.178;2024-01-15T02:36:45;-0.40;99.90
64226;DHT22;50545;56.064;26.178;2024-01-15T02:39:12;-0.40;99.90
64226;DHT22;50545;56.064;26.178;2024-01-15T02:41:40;-0.40;99.90
64226;DHT22;50545;56.064;26.178;2024-01-15T02:44:07;-0.40;99.90
64226;DHT22;50545;56.064;26.178;2024-01-15T02:46:34;-0.40;99.90
64226;DHT22;50545;56.064;26.178;2024-01-15T02:49:02;-0.40;99.90
64226;DHT22;50545;56.064;26.178;2024-01-15T02:51:29;-0.40;99.90
64226;DHT22;50545;56.064;26.178;2024-01-15T02:53:57;-0.40;99.90
64226;DHT22;50545;56.064;26.178;2024-01-15T02:56:25;-0.40;99.90
64226;DHT22;50545;56.064;26.178;2024-01-15T02:58:52;-0.40;99.90
64226;DHT22;50545;56.064;26.178;2024-01-15T03:01:19;-0.40;99.90
64226;DHT22;50545;56.064;26.178;2024-01-15T03:03:47;-0.40;99.90
64226;DHT22;50545;56.064;26.178;2024-01-15T03:06:15;-0.40;99.90
64226;DHT22;50545;56.064;26.178;2024-01-15T03:08:43;-0.40;99.90
64226;DHT22;50545;56.064;26.178;2024-01-15T03:11:10;-0.40;99.90
64226;DHT22;50545;56.064;26.178;2024-01-15T03:13:38;-0.50;99.90
64226;DHT22;50545;56.064;26.178;2024-01-15T03:16:05;-0.50;99.90
64226;DHT22;50545;56.064;26.178;2024-01-15T03:18:33;-0.50;99.90
64226;DHT22;50545;56.064;26.178;2024-01-15T03:21:01;-0.50;99.90
64226;DHT22;50545;56.064;26.178;2024-01-15T03:23:28;-0.50;99.90
64226;DHT22;50545;56.064;26.178;2024-01-15T03:25:56;-0.50;99.90
64226;DHT22;50545;56.064;26.178;2024-01-15T03:28:23;-0.50;99.90
64226;DHT22;50545;56.064;26.178;2024-01-15T03:30:51;-0.50;99.90
64226;DHT22;50545;56.064;26.178;2024-01-15T03:33:18;-0.50;99.90
64226;DHT22;50545;56.064;26.178;2024-01-15T03:35:46;-0.50;99.90
64226;DHT22;50545;56.064;26.178;2024-01-15T03:38:14;-0.50;99.90
64226;DHT22;50545;56.064;26.178;2024-01-15T03:40:41;-0.50;99.90
64226;DHT22;50545;56.064;26.178;2024-01-15T03:43:09;-0.50;99.90
64226;DHT22;50545;56.064;26.178;2024-01-15T03:45:37;-0.50;99.90
64226;DHT22;50545;56.064;26.178;2024-01-15T03:48:04;-0.50;99.90
64226;DHT22;50545;56.064;26.178;2024-01-15T03:50:32;-0.50;99.90
64226;DHT22;50545;56.064;26.178;2024-01-15T03:53:00;-0.50;99.90
64226;DHT22;50545;56.064;26.178;2024-01-15T03:55:27;-0.50;99.90
64226;DHT22;50545;56.064;26.178;2024-01-15T03:57:55;-0.50;99.90
64226;DHT22;50545;56.064;26.178;2024-01-15T04:00:22;-0.50;99.90
64226;DHT22;50545;56.064;26.178;2024-01-15T04:02:50;-0.50;99.90
64226;DHT22;50545;56.064;26.178;2024-01-15T04:05:18;-0.50;99.90
64226;DHT22;50545;56.064;26.178;2024-01-15T04:07:45;-0.50;99.90
64226;DHT22;50545;56.064;26.178;2024-01-15T04:10:13;-0.50;99.90
64226;DHT22;50545;56.064;26.178;2024-01-15T04:12:40;-0.50;99.90
64226;DHT22;50545;56.064;26.178;2024-01-15T04:15:11;-0.50;99.90
64226;DHT22;50545;56.064;26.178;2024-01-15T04:17:39;-0.60;99.90
64226;DHT22;50545;56.064;26.178;2024-01-15T04:20:07;-0.60;99.90
64226;DHT22;50545;56.064;26.178;2024-01-15T04:22:35;-0.60;99.90
64226;DHT22;50545;56.064;26.178;2024-01-15T04:25:04;-0.60;99.90
64226;DHT22;50545;56.064;26.178;2024-01-15T04:27:32;-0.60;99.90
64226;DHT22;50545;56.064;26.178;2024-01-15T04:29:59;-0.60;99.90
64226;DHT22;50545;56.064;26.178;2024-01-15T04:32:27;-0.60;99.90
64226;DHT22;50545;56.064;26.178;2024-01-15T04:34:55;-0.60;99.90
64226;DHT22;50545;56.064;26.178;2024-01-15T04:37:22;-0.50;99.90
64226;DHT22;50545;56.064;26.178;2024-01-15T04:39:51;-0.60;99.90
64226;DHT22;50545;56.064;26.178;2024-01-15T04:42:22;-0.60;99.90
64226;DHT22;50545;56.064;26.178;2024-01-15T04:44:50;-0.60;99.90
64226;DHT22;50545;56.064;26.178;2024-01-15T04:47:17;-0.60;99.90
64226;DHT22;50545;56.064;26.178;2024-01-15T04:49:45;-0.50;99.90
64226;DHT22;50545;56.064;26.178;2024-01-15T04:52:12;-0.60;99.90
64226;DHT22;50545;56.064;26.178;2024-01-15T04:54:40;-0.60;99.90
64226;DHT22;50545;56.064;26.178;2024-01-15T04:57:07;-0.60;99.90
64226;DHT22;50545;56.064;26.178;2024-01-15T04:59:35;-0.60;99.90
64226;DHT22;50545;56.064;26.178;2024-01-15T05:02:02;-0.60;99.90
64226;DHT22;50545;56.064;26.178;2024-01-15T05:04:30;-0.60;99.90
64226;DHT22;50545;56.064;26.178;2024-01-15T05:06:57;-0.60;99.90
64226;DHT22;50545;56.064;26.178;2024-01-15T05:09:25;-0.60;99.90
64226;DHT22;50545;56.064;26.178;2024-01-15T05:11:56;-0.60;99.90
64226;DHT22;50545;56.064;26.178;2024-01-15T05:14:24;-0.60;99.90
64226;DHT22;50545;56.064;26.178;2024-01-15T05:16:52;-0.60;99.90
64226;DHT22;50545;56.064;26.178;2024-01-15T05:19:19;-0.60;99.90
64226;DHT22;50545;56.064;26.178;2024-01-15T05:21:47;-0.60;99.90
64226;DHT22;50545;56.064;26.178;2024-01-15T05:24:15;-0.60;99.90
64226;DHT22;50545;56.064;26.178;2024-01-15T05:26:42;-0.60;99.90
64226;DHT22;50545;56.064;26.178;2024-01-15T05:29:10;-0.60;99.90
64226;DHT22;50545;56.064;26.178;2024-01-15T05:31:37;-0.60;99.90
64226;DHT22;50545;56.064;26.178;2024-01-15T05:34:05;-0.70;99.90
64226;DHT22;50545;56.064;26.178;2024-01-15T05:36:33;-0.70;99.90
64226;DHT22;50545;56.064;26.178;2024-01-15T05:39:00;-0.70;99.90
64226;DHT22;50545;56.064;26.178;2024-01-15T05:41:27;-0.70;99.90
64226;DHT22;50545;56.064;26.178;2024-01-15T05:43:55;-0.70;99.90
64226;DHT22;50545;56.064;26.178;2024-01-15T05:46:22;-0.70;99.90
64226;DHT22;50545;56.064;26.178;2024-01-15T05:48:50;-0.70;99.90
64226;DHT22;50545;56.064;26.178;2024-01-15T05:51:18;-0.70;99.90
64226;DHT22;50545;56.064;26.178;2024-01-15T05:53:45;-0.70;99.90
64226;DHT22;50545;56.064;26.178;2024-01-15T05:56:16;-0.70;99.90
64226;DHT22;50545;56.064;26.178;2024-01-15T05:58:43;-0.70;99.90
64226;DHT22;50545;56.064;26.178;2024-01-15T06:01:11;-0.70;99.90
64226;DHT22;50545;56.064;26.178;2024-01-15T06:03:39;-0.70;99.90
64226;DHT22;50545;56.064;26.178;2024-01-15T06:06:08;-0.70;99.90
64226;DHT22;50545;56.064;26.178;2024-01-15T06:08:37;-0.70;99.90
64226;DHT22;50545;56.064;26.178;2024-01-15T06:11:06;-0.80;99.90
64226;DHT22;50545;56.064;26.178;2024-01-15T06:13:35;-0.80;99.90
64226;DHT22;50545;56.064;26.178;2024-01-15T06:16:02;-0.80;99.90
64226;DHT22;50545;56.064;26.178;2024-01-15T06:18:32;-0.80;99.90
64226;DHT22;50545;56.064;26.178;2024-01-15T06:21:00;-0.80;99.90
64226;DHT22;50545;56.064;26.178;2024-01-15T06:23:27;-0.80;99.90
64226;DHT22;50545;56.064;26.178;2024-01-15T06:25:55;-0.80;99.90
64226;DHT22;50545;56.064;26.178;2024-01-15T06:28:22;-0.80;99.90
64226;DHT22;50545;56.064;26.178;2024-01-15T06:30:50;-0.80;99.90
64226;DHT22;50545;56.064;26.178;2024-01-15T06:33:18;-0.70;99.90
64226;DHT22;50545;56.064;26.178;2024-01-15T06:35:45;-0.70;99.90
64226;DHT22;50545;56.064;26.178;2024-01-15T06:38:13;-0.70;99.90
64226;DHT22;50545;56.064;26.178;2024-01-15T06:40:40;-0.70;99.90
64226;DHT22;50545;56.064;26.178;2024-01-15T06:43:14;-0.60;99.90
64226;DHT22;50545;56.064;26.178;2024-01-15T06:45:45;-0.50;99.90
64226;DHT22;50545;56.064;26.178;2024-01-15T06:48:13;-0.50;99.90
64226;DHT22;50545;56.064;26.178;2024-01-15T06:50:44;-0.40;99.90
64226;DHT22;50545;56.064;26.178;2024-01-15T06:53:11;-0.40;99.90
64226;DHT22;50545;56.064;26.178;2024-01-15T06:55:39;-0.30;99.90
64226;DHT22;50545;56.064;26.178;2024-01-15T06:58:07;-0.20;99.90
64226;DHT22;50545;56.064;26.178;2024-01-15T07:00:36;-0.20;99.90
64226;DHT22;50545;56.064;26.178;2024-01-15T07:03:05;-0.10;99.90
64226;DHT22;50545;56.064;26.178;2024-01-15T07:05:32;-0.10;99.90
64226;DHT22;50545;56.064;26.178;2024-01-15T07:08:00;0.00;99.90
64226;DHT22;50545;56.064;26.178;2024-01-15T07:10:27;0.00;99.90
64226;DHT22;50545;56.064;26.178;2024-01-15T07:12:55;0.00;99.90
64226;DHT22;50545;56.064;26.178;2024-01-15T07:15:23;0.10;99.90
64226;DHT22;50545;56.064;26.178;2024-01-15T07:17:50;0.10;99.90
64226;DHT22;50545;56.064;26.178;2024-01-15T07:20:18;0.10;99.90
64226;DHT22;50545;56.064;26.178;2024-01-15T07:22:46;0.20;99.90
64226;DHT22;50545;56.064;26.178;2024-01-15T07:25:15;0.20;99.90
64226;DHT22;50545;56.064;26.178;2024-01-15T07:27:42;0.30;99.90
64226;DHT22;50545;56.064;26.178;2024-01-15T07:30:12;0.30;99.90
64226;DHT22;50545;56.064;26.178;2024-01-15T07:32:40;0.30;99.90
64226;DHT22;50545;56.064;26.178;2024-01-15T07:35:08;0.40;99.90
64226;DHT22;50545;56.064;26.178;2024-01-15T07:37:35;0.40;99.90
64226;DHT22;50545;56.064;26.178;2024-01-15T07:40:03;0.40;99.90
64226;DHT22;50545;56.064;26.178;2024-01-15T07:42:31;0.50;99.90
64226;DHT22;50545;56.064;26.178;2024-01-15T07:44:59;0.50;99.90
64226;DHT22;50545;56.064;26.178;2024-01-15T07:47:26;0.50;99.90
64226;DHT22;50545;56.064;26.178;2024-01-15T07:49:55;0.60;99.90
64226;DHT22;50545;56.064;26.178;2024-01-15T07:52:27;0.60;99.90
64226;DHT22;50545;56.064;26.178;2024-01-15T07:54:55;0.60;99.90
64226;DHT22;50545;56.064;26.178;2024-01-15T07:57:22;0.70;99.90
64226;DHT22;50545;56.064;26.178;2024-01-15T07:59:50;0.70;99.90
64226;DHT22;50545;56.064;26.178;2024-01-15T08:02:19;0.70;99.90
64226;DHT22;50545;56.064;26.178;2024-01-15T08:04:46;0.70;99.90
64226;DHT22;50545;56.064;26.178;2024-01-15T08:07:15;0.70;99.90
64226;DHT22;50545;56.064;26.178;2024-01-15T08:09:43;0.80;99.90
64226;DHT22;50545;56.064;26.178;2024-01-15T08:12:10;0.80;99.90
64226;DHT22;50545;56.064;26.178;2024-01-15T08:14:38;0.80;99.90
64226;DHT22;50545;56.064;26.178;2024-01-15T08:17:06;0.80;99.90
64226;DHT22;50545;56.064;26.178;2024-01-15T08:19:33;0.80;99.90
64226;DHT22;50545;56.064;26.178;2024-01-15T08:22:01;0.80;99.90
64226;DHT22;50545;56.064;26.178;2024-01-15T08:24:29;0.90;99.90
64226;DHT22;50545;56.064;26.178;2024-01-15T08:26:56;0.90;99.90
64226;DHT22;50545;56.064;26.178;2024-01-15T08:29:24;0.90;99.90
64226;DHT22;50545;56.064;26.178;2024-01-15T08:31:51;0.90;99.90
64226;DHT22;50545;56.064;26.178;2024-01-15T08:34:19;0.90;99.90
64226;DHT22;50545;56.064;26.178;2024-01-15T08:36:47;0.90;99.90
64226;DHT22;50545;56.064;26.178;2024-01-15T08:39:14;1.00;99.90
64226;DHT22;50545;56.064;26.178;2024-01-15T08:41:42;1.00;99.90
64226;DHT22;50545;56.064;26.178;2024-01-15T08:44:10;1.00;99.90
64226;DHT22;50545;56.064;26.178;2024-01-15T08:46:37;1.00;99.90
64226;DHT22;50545;56.064;26.178;2024-01-15T08:49:05;1.00;99.90
64226;DHT22;50545;56.064;26.178;2024-01-15T08:51:33;1.00;99.90
64226;DHT22;50545;56.064;26.178;2024-01-15T08:54:01;1.00;99.90
64226;DHT22;50545;56.064;26.178;2024-01-15T08:56:28;1.10;99.90
64226;DHT22;50545;56.064;26.178;2024-01-15T08:58:56;1.10;99.90
64226;DHT22;50545;56.064;26.178;2024-01-15T09:01:23;1.10;99.90
64226;DHT22;50545;56.064;26.178;2024-01-15T09:03:51;1.10;99.90
64226;DHT22;50545;56.064;26.178;2024-01-15T09:06:19;1.20;99.90
64226;DHT22;50545;56.064;26.178;2024-01-15T09:08:48;1.20;99.90
64226;DHT22;50545;56.064;26.178;2024-01-15T09:11:15;1.20;99.90
64226;DHT22;50545;56.064;26.178;2024-01-15T09:13:43;1.20;99.90
64226;DHT22;50545;56.064;26.178;2024-01-15T09:16:10;1.30;99.90
64226;DHT22;50545;56.064;26.178;2024-01-15T09:18:38;1.30;99.90
64226;DHT22;50545;56.064;26.178;2024-01-15T09:21:05;1.30;99.90
64226;DHT22;50545;56.064;26.178;2024-01-15T09:23:33;1.30;99.90
64226;DHT22;50545;56.064;26.178;2024-01-15T09:26:01;1.30;99.90
64226;DHT22;50545;56.064;26.178;2024-01-15T09:28:28;1.30;99.90
64226;DHT22;50545;56.064;26.178;2024-01-15T09:30:55;1.30;99.90
64226;DHT22;50545;56.064;26.178;2024-01-15T09:33:23;1.30;99.90
64226;DHT22;50545;56.064;26.178;2024-01-15T09:35:51;1.40;99.90
64226;DHT22;50545;56.064;26.178;2024-01-15T09:38:18;1.40;99.90
64226;DHT22;50545;56.064;26.178;2024-01-15T09:40:46;1.40;99.90
64226;DHT22;50545;56.064;26.178;2024-01-15T09:43:14;1.40;99.90
64226;DHT22;50545;56.064;26.178;2024-01-15T09:45:43;1.40;99.90
64226;DHT22;50545;56.064;26.178;2024-01-15T09:48:11;1.40;99.90
64226;DHT22;50545;56.064;26.178;2024-01-15T09:50:39;1.30;99.90
64226;DHT22;50545;56.064;26.178;2024-01-15T09:53:07;1.30;99.90
64226;DHT22;50545;56.064;26.178;2024-01-15T09:55:37;1.30;99.90
64226;DHT22;50545;56.064;26.178;2024-01-15T09:58:07;1.30;99.90
64226;DHT22;50545;56.064;26.178;2024-01-15T10:00:35;1.30;99.90
64226;DHT22;50545;56.064;26.178;2024-01-15T10:03:06;1.30;99.90
64226;DHT22;50545;56.064;26.178;2024-01-15T10:05:34;1.40;99.90
64226;DHT22;50545;56.064;26.178;2024-01-15T10:08:03;1.40;99.90
64226;DHT22;50545;56.064;26.178;2024-01-15T10:10:31;1.40;99.90
64226;DHT22;50545;56.064;26.178;2024-01-15T10:12:59;1.40;99.90
64226;DHT22;50545;56.064;26.178;2024-01-15T10:15:27;1.40;99.90
64226;DHT22;50545;56.064;26.178;2024-01-15T10:17:55;1.50;99.90
64226;DHT22;50545;56.064;26.178;2024-01-15T10:20:22;1.40;99.90
64226;DHT22;50545;56.064;26.178;2024-01-15T10:22:50;1.40;99.90
64226;DHT22;50545;56.064;26.178;2024-01-15T10:25:18;1.40;99.90
64226;DHT22;50545;56.064;26.178;2024-01-15T10:28:09;1.40;99.90
64226;DHT22;50545;56.064;26.178;2024-01-15T10:30:37;1.50;99.90
64226;DHT22;50545;56.064;26.178;2024-01-15T10:33:05;1.50;99.90
64226;DHT22;50545;56.064;26.178;2024-01-15T10:35:34;1.50;99.90
64226;DHT22;50545;56.064;26.178;2024-01-15T10:38:02;1.50;99.90
64226;DHT22;50545;56.064;26.178;2024-01-15T10:40:30;1.60;99.90
64226;DHT22;50545;56.064;26.178;2024-01-15T10:42:57;1.60;99.90
64226;DHT22;50545;56.064;26.178;2024-01-15T10:45:25;1.60;99.90
64226;DHT22;50545;56.064;26.178;2024-01-15T10:47:54;1.60;99.90
64226;DHT22;50545;56.064;26.178;2024-01-15T10:50:27;1.60;99.90
64226;DHT22;50545;56.064;26.178;2024-01-15T10:52:54;1.60;99.90
64226;DHT22;50545;56.064;26.178;2024-01-15T10:55:24;1.60;99.90
64226;DHT22;50545;56.064;26.178;2024-01-15T10:57:52;1.60;99.90
64226;DHT22;50545;56.064;26.178;2024-01-15T11:00:20;1.60;99.90
64226;DHT22;50545;56.064;26.178;2024-01-15T11:02:48;1.60;99.90
64226;DHT22;50545;56.064;26.178;2024-01-15T11:05:16;1.60;99.90
64226;DHT22;50545;56.064;26.178;2024-01-15T11:07:45;1.60;99.90
64226;DHT22;50545;56.064;26.178;2024-01-15T11:10:52;1.60;99.90
64226;DHT22;50545;56.064;26.178;2024-01-15T11:16:03;1.60;99.90
64226;DHT22;50545;56.064;26.178;2024-01-15T11:18:32;1.60;99.90
64226;DHT22;50545;56.064;26.178;2024-01-15T11:23:47;1.50;99.90
64226;DHT22;50545;56.064;26.178;2024-01-15T11:26:36;1.50;99.90
64226;DHT22;50545;56.064;26.178;2024-01-15T11:34:10;1.60;99.90
64226;DHT22;50545;56.064;26.178;2024-01-15T11:42:00;1.50;99.90
64226;DHT22;50545;56.064;26.178;2024-01-15T11:44:28;1.50;99.90
64226;DHT22;50545;56.064;26.178;2024-01-15T11:47:00;1.50;99.90
64226;DHT22;50545;56.064;26.178;2024-01-15T11:52:23;1.50;99.90
64226;DHT22;50545;56.064;26.178;2024-01-15T11:57:41;1.50;99.90
64226;DHT22;50545;56.064;26.178;2024-01-15T12:00:13;1.40;99.90
64226;DHT22;50545;56.064;26.178;2024-01-15T12:02:43;1.40;99.90
64226;DHT22;50545;56.064;26.178;2024-01-15T12:05:11;1.40;99.90
64226;DHT22;50545;56.064;26.178;2024-01-15T12:07:40;1.40;99.90
64226;DHT22;50545;56.064;26.178;2024-01-15T12:10:13;1.40;99.90
64226;DHT22;50545;56.064;26.178;2024-01-15T12:13:14;1.40;99.90
64226;DHT22;50545;56.064;26.178;2024-01-15T12:15:42;1.40;99.90
64226;DHT22;50545;56.064;26.178;2024-01-15T12:18:13;1.40;99.90
64226;DHT22;50545;56.064;26.178;2024-01-15T12:20:43;1.40;99.90
64226;DHT22;50545;56.064;26.178;2024-01-15T12:23:10;1.40;99.90
64226;DHT22;50545;56.064;26.178;2024-01-15T12:25:39;1.40;99.90
64226;DHT22;50545;56.064;26.178;2024-01-15T12:28:07;1.40;99.90
64226;DHT22;50545;56.064;26.178;2024-01-15T12:30:35;1.50;99.90
64226;DHT22;50545;56.064;26.178;2024-01-15T12:33:06;1.50;99.90
64226;DHT22;50545;56.064;26.178;2024-01-15T12:35:34;1.40;99.90
64226;DHT22;50545;56.064;26.178;2024-01-15T12:38:02;1.40;99.90
64226;DHT22;50545;56.064;26.178;2024-01-15T12:40:31;1.40;99.90
64226;DHT22;50545;56.064;26.178;2024-01-15T12:43:00;1.40;99.90
64226;DHT22;50545;56.064;26.178;2024-01-15T12:45:27;1.30;99.90
64226;DHT22;50545;56.064;26.178;2024-01-15T12:47:55;1.40;99.90
64226;DHT22;50545;56.064;26.178;2024-01-15T12:50:24;1.40;99.90
64226;DHT22;50545;56.064;26.178;2024-01-15T12:52:52;1.40;99.90
64226;DHT22;50545;56.064;26.178;2024-01-15T12:55:21;1.40;99.90
64226;DHT22;50545;56.064;26.178;2024-01-15T12:57:49;1.40;99.90
64226;DHT22;50545;56.064;26.178;2024-01-15T13:00:20;1.40;99.90
64226;DHT22;50545;56.064;26.178;2024-01-15T13:02:47;1.40;99.90
64226;DHT22;50545;56.064;26.178;2024-01-15T13:05:17;1.30;99.90
64226;DHT22;50545;56.064;26.178;2024-01-15T13:07:45;1.40;99.90
64226;DHT22;50545;56.064;26.178;2024-01-15T13:10:13;1.40;99.90
64226;DHT22;50545;56.064;26.178;2024-01-15T13:12:40;1.30;99.90
64226;DHT22;50545;56.064;26.178;2024-01-15T13:15:09;1.40;99.90
64226;DHT22;50545;56.064;26.178;2024-01-15T13:17:42;1.30;99.90
64226;DHT22;50545;56.064;26.178;2024-01-15T13:20:11;1.30;99.90
64226;DHT22;50545;56.064;26.178;2024-01-15T13:22:39;1.30;99.90
64226;DHT22;50545;56.064;26.178;2024-01-15T13:25:12;1.30;99.90
64226;DHT22;50545;56.064;26.178;2024-01-15T13:27:39;1.20;99.90
64226;DHT22;50545;56.064;26.178;2024-01-15T13:30:09;1.20;99.90
64226;DHT22;50545;56.064;26.178;2024-01-15T13:32:37;1.20;99.90
64226;DHT22;50545;56.064;26.178;2024-01-15T13:35:05;1.10;99.90
64226;DHT22;50545;56.064;26.178;2024-01-15T13:37:37;1.10;99.90
64226;DHT22;50545;56.064;26.178;2024-01-15T13:40:05;1.00;99.90
64226;DHT22;50545;56.064;26.178;2024-01-15T13:42:35;1.00;99.90
64226;DHT22;50545;56.064;26.178;2024-01-15T13:45:05;1.00;99.90
64226;DHT22;50545;56.064;26.178;2024-01-15T13:47:33;1.00;99.90
64226;DHT22;50545;56.064;26.178;2024-01-15T13:50:00;1.00;99.90
64226;DHT22;50545;56.064;26.178;2024-01-15T13:52:28;1.00;99.90
64226;DHT22;50545;56.064;26.178;2024-01-15T13:54:55;0.90;99.90
64226;DHT22;50545;56.064;26.178;2024-01-15T13:57:23;0.90;99.90
64226;DHT22;50545;56.064;26.178;2024-01-15T13:59:50;0.90;99.90
64226;DHT22;50545;56.064;26.178;2024-01-15T14:02:17;0.90;99.90
64226;DHT22;50545;56.064;26.178;2024-01-15T14:04:49;0.90;99.90
64226;DHT22;50545;56.064;26.178;2024-01-15T14:07:17;0.80;99.90
64226;DHT22;50545;56.064;26.178;2024-01-15T14:09:44;0.80;99.90
64226;DHT22;50545;56.064;26.178;2024-01-15T14:12:13;0.80;99.90
64226;DHT22;50545;56.064;26.178;2024-01-15T14:14:42;0.70;99.90
64226;DHT22;50545;56.064;26.178;2024-01-15T14:17:10;0.70;99.90
64226;DHT22;50545;56.064;26.178;2024-01-15T14:19:37;0.70;99.90
64226;DHT22;50545;56.064;26.178;2024-01-15T14:22:05;0.60;99.90
64226;DHT22;50545;56.064;26.178;2024-01-15T14:24:32;0.60;99.90
64226;DHT22;50545;56.064;26.178;2024-01-15T14:26:59;0.60;99.90
64226;DHT22;50545;56.064;26.178;2024-01-15T14:29:27;0.60;99.90
64226;DHT22;50545;56.064;26.178;2024-01-15T14:31:55;0.60;99.90
64226;DHT22;50545;56.064;26.178;2024-01-15T14:34:22;0.60;99.90
64226;DHT22;50545;56.064;26.178;2024-01-15T14:36:51;0.50;99.90
64226;DHT22;50545;56.064;26.178;2024-01-15T14:39:22;0.50;99.90
64226;DHT22;50545;56.064;26.178;2024-01-15T14:41:50;0.50;99.90
64226;DHT22;50545;56.064;26.178;2024-01-15T14:44:18;0.50;99.90
64226;DHT22;50545;56.064;26.178;2024-01-15T14:46:46;0.50;99.90
64226;DHT22;50545;56.064;26.178;2024-01-15T14:49:13;0.50;99.90
64226;DHT22;50545;56.064;26.178;2024-01-15T14:51:42;0.50;99.90
64226;DHT22;50545;56.064;26.178;2024-01-15T14:54:10;0.50;99.90
64226;DHT22;50545;56.064;26.178;2024-01-15T14:56:38;0.50;99.90
64226;DHT22;50545;56.064;26.178;2024-01-15T14:59:05;0.50;99.90
64226;DHT22;50545;56.064;26.178;2024-01-15T15:01:33;0.50;99.90
64226;DHT22;50545;56.064;26.178;2024-01-15T15:04:00;0.50;99.90
64226;DHT22;50545;56.064;26.178;2024-01-15T15:06:28;0.50;99.90
64226;DHT22;50545;56.064;26.178;2024-01-15T15:08:56;0.50;99.90
64226;DHT22;50545;56.064;26.178;2024-01-15T15:11:26;0.50;99.90
64226;DHT22;50545;56.064;26.178;2024-01-15T15:13:54;0.50;99.90
64226;DHT22;50545;56.064;26.178;2024-01-15T15:16:22;0.50;99.90
64226;DHT22;50545;56.064;26.178;2024-01-15T15:18:49;0.50;99.90
64226;DHT22;50545;56.064;26.178;2024-01-15T15:21:17;0.50;99.90
64226;DHT22;50545;56.064;26.178;2024-01-15T15:23:45;0.50;99.90
64226;DHT22;50545;56.064;26.178;2024-01-15T15:26:12;0.50;99.90
64226;DHT22;50545;56.064;26.178;2024-01-15T15:28:39;0.50;99.90
64226;DHT22;50545;56.064;26.178;2024-01-15T15:31:06;0.50;99.90
64226;DHT22;50545;56.064;26.178;2024-01-15T15:33:40;0.50;99.90
64226;DHT22;50545;56.064;26.178;2024-01-15T15:36:07;0.50;99.90
64226;DHT22;50545;56.064;26.178;2024-01-15T15:38:34;0.50;99.90
64226;DHT22;50545;56.064;26.178;2024-01-15T15:41:02;0.50;99.90
64226;DHT22;50545;56.064;26.178;2024-01-15T15:43:30;0.50;99.90
64226;DHT22;50545;56.064;26.178;2024-01-15T15:45:57;0.50;99.90
64226;DHT22;50545;56.064;26.178;2024-01-15T15:48:27;0.50;99.90
64226;DHT22;50545;56.064;26.178;2024-01-15T15:50:55;0.50;99.90
64226;DHT22;50545;56.064;26.178;2024-01-15T15:53:23;0.50;99.90